sensor_id;sensor_type;location;lat;lon;timestamp;P1;durP1;ratioP1;P2;durP2;ratioP2
22480;SDS011;11407;56.964;-2.212;2022-11-10T00:00:16;4.50;;;1.10;;
22480;SDS011;11407;56.964;-2.212;2022-11-10T00:02:42;1.63;;;0.80;;
22480;SDS011;11407;56.964;-2.212;2022-11-10T00:05:11;3.63;;;1.10;;
22480;SDS011;11407;56.964;-2.212;2022-11-10T00:07:38;3.00;;;1.10;;
22480;SDS011;11407;56.964;-2.212;2022-11-10T00:10:03;2.30;;;0.73;;
22480;SDS011;11407;56.964;-2.212;2022-11-10T00:12:30;2.47;;;1.07;;
22480;SDS011;11407;56.964;-2.212;2022-11-10T00:14:56;3.27;;;0.87;;
22480;SDS011;11407;56.964;-2.212;2022-11-10T00:17:41;1.93;;;0.80;;
22480;SDS011;11407;56.964;-2.212;2022-11-10T00:20:06;1.53;;;0.73;;
22480;SDS011;11407;56.964;-2.212;2022-11-10T00:22:33;2.17;;;0.93;;
22480;SDS011;11407;56.964;-2.212;2022-11-10T00:24:59;3.67;;;0.90;;
22480;SDS011;11407;56.964;-2.212;2022-11-10T00:27:26;3.97;;;1.17;;
22480;SDS011;11407;56.964;-2.212;2022-11-10T00:29:51;1.83;;;0.90;;
22480;SDS011;11407;56.964;-2.212;2022-11-10T00:32:17;3.10;;;0.90;;
22480;SDS011;11407;56.964;-2.212;2022-11-10T00:34:42;5.50;;;1.57;;
22480;SDS011;11407;56.964;-2.212;2022-11-10T00:37:07;4.70;;;1.10;;
22480;SDS011;11407;56.964;-2.212;2022-11-10T00:39:33;1.93;;;0.87;;
22480;SDS011;11407;56.964;-2.212;2022-11-10T00:41:58;2.73;;;0.80;;
22480;SDS011;11407;56.964;-2.212;2022-11-10T00:44:24;2.27;;;1.00;;
22480;SDS011;11407;56.964;-2.212;2022-11-10T00:46:49;2.27;;;1.10;;
22480;SDS011;11407;56.964;-2.212;2022-11-10T00:49:15;1.70;;;0.70;;
22480;SDS011;11407;56.964;-2.212;2022-11-10T00:51:40;1.60;;;0.80;;
22480;SDS011;11407;56.964;-2.212;2022-11-10T00:54:05;1.67;;;0.73;;
22480;SDS011;11407;56.964;-2.212;2022-11-10T00:56:31;2.50;;;0.90;;
22480;SDS011;11407;56.964;-2.212;2022-11-10T00:58:56;0.83;;;0.70;;
22480;SDS011;11407;56.964;-2.212;2022-11-10T01:01:23;1.00;;;0.70;;
22480;SDS011;11407;56.964;-2.212;2022-11-10T01:03:49;2.40;;;0.70;;
22480;SDS011;11407;56.964;-2.212;2022-11-10T01:06:16;0.93;;;0.60;;
22480;SDS011;11407;56.964;-2.212;2022-11-10T01:08:42;1.43;;;0.80;;
22480;SDS011;11407;56.964;-2.212;2022-11-10T01:11:41;1.27;;;0.77;;
22480;SDS011;11407;56.964;-2.212;2022-11-10T01:14:00;1.47;;;0.70;;
22480;SDS011;11407;56.964;-2.212;2022-11-10T01:16:29;0.60;;;0.60;;
22480;SDS011;11407;56.964;-2.212;2022-11-10T01:18:56;0.80;;;0.80;;
22480;SDS011;11407;56.964;-2.212;2022-11-10T01:21:24;2.73;;;0.70;;
22480;SDS011;11407;56.964;-2.212;2022-11-10T01:23:51;0.63;;;0.63;;
22480;SDS011;11407;56.964;-2.212;2022-11-10T01:26:17;1.23;;;0.70;;
22480;SDS011;11407;56.964;-2.212;2022-11-10T01:28:43;1.80;;;0.80;;
22480;SDS011;11407;56.964;-2.212;2022-11-10T01:31:11;1.53;;;0.60;;
22480;SDS011;11407;56.964;-2.212;2022-11-10T01:33:39;1.53;;;0.60;;
22480;SDS011;11407;56.964;-2.212;2022-11-10T01:36:05;0.70;;;0.70;;
22480;SDS011;11407;56.964;-2.212;2022-11-10T01:38:33;1.33;;;0.90;;
22480;SDS011;11407;56.964;-2.212;2022-11-10T01:41:00;1.90;;;1.17;;
22480;SDS011;11407;56.964;-2.212;2022-11-10T01:43:27;2.03;;;1.20;;
22480;SDS011;11407;56.964;-2.212;2022-11-10T01:45:54;2.03;;;0.90;;
22480;SDS011;11407;56.964;-2.212;2022-11-10T01:49:00;2.83;;;1.10;;
22480;SDS011;11407;56.964;-2.212;2022-11-10T01:53:51;0.70;;;0.70;;
22480;SDS011;11407;56.964;-2.212;2022-11-10T01:56:21;1.83;;;0.90;;
22480;SDS011;11407;56.964;-2.212;2022-11-10T01:58:50;1.07;;;0.90;;
22480;SDS011;11407;56.964;-2.212;2022-11-10T02:01:21;1.97;;;0.90;;
22480;SDS011;11407;56.964;-2.212;2022-11-10T02:03:49;1.57;;;1.00;;
22480;SDS011;11407;56.964;-2.212;2022-11-10T02:06:19;1.93;;;0.70;;
22480;SDS011;11407;56.964;-2.212;2022-11-10T02:08:48;1.77;;;1.30;;
22480;SDS011;11407;56.964;-2.212;2022-11-10T02:11:15;1.20;;;0.90;;
22480;SDS011;11407;56.964;-2.212;2022-11-10T02:13:40;2.50;;;1.10;;
22480;SDS011;11407;56.964;-2.212;2022-11-10T02:16:06;1.47;;;1.00;;
22480;SDS011;11407;56.964;-2.212;2022-11-10T02:18:33;1.83;;;1.10;;
22480;SDS011;11407;56.964;-2.212;2022-11-10T02:21:02;1.63;;;0.90;;
22480;SDS011;11407;56.964;-2.212;2022-11-10T02:25:58;1.73;;;1.23;;
22480;SDS011;11407;56.964;-2.212;2022-11-10T02:28:24;1.73;;;1.20;;
22480;SDS011;11407;56.964;-2.212;2022-11-10T02:30:51;2.37;;;1.13;;
22480;SDS011;11407;56.964;-2.212;2022-11-10T02:33:17;1.30;;;1.20;;
22480;SDS011;11407;56.964;-2.212;2022-11-10T02:35:43;1.30;;;1.20;;
22480;SDS011;11407;56.964;-2.212;2022-11-10T02:38:09;1.50;;;1.10;;
22480;SDS011;11407;56.964;-2.212;2022-11-10T02:40:34;2.93;;;1.50;;
22480;SDS011;11407;56.964;-2.212;2022-11-10T02:43:00;2.30;;;1.30;;
22480;SDS011;11407;56.964;-2.212;2022-11-10T02:45:26;1.97;;;1.10;;
22480;SDS011;11407;56.964;-2.212;2022-11-10T02:47:51;1.40;;;1.17;;
22480;SDS011;11407;56.964;-2.212;2022-11-10T02:50:17;2.03;;;1.27;;
22480;SDS011;11407;56.964;-2.212;2022-11-10T02:52:42;1.67;;;1.10;;
22480;SDS011;11407;56.964;-2.212;2022-11-10T02:55:08;1.77;;;1.30;;
22480;SDS011;11407;56.964;-2.212;2022-11-10T02:57:34;2.60;;;1.20;;
22480;SDS011;11407;56.964;-2.212;2022-11-10T02:59:59;1.43;;;1.10;;
22480;SDS011;11407;56.964;-2.212;2022-11-10T03:02:24;1.97;;;1.10;;
22480;SDS011;11407;56.964;-2.212;2022-11-10T03:04:50;1.63;;;1.13;;
22480;SDS011;11407;56.964;-2.212;2022-11-10T03:07:15;2.43;;;1.30;;
22480;SDS011;11407;56.964;-2.212;2022-11-10T03:09:41;3.57;;;1.40;;
22480;SDS011;11407;56.964;-2.212;2022-11-10T03:12:06;4.30;;;1.30;;
22480;SDS011;11407;56.964;-2.212;2022-11-10T03:14:32;2.37;;;1.30;;
22480;SDS011;11407;56.964;-2.212;2022-11-10T03:16:57;1.20;;;1.10;;
22480;SDS011;11407;56.964;-2.212;2022-11-10T03:19:22;1.23;;;1.13;;
22480;SDS011;11407;56.964;-2.212;2022-11-10T03:21:48;1.93;;;1.23;;
22480;SDS011;11407;56.964;-2.212;2022-11-10T03:24:13;3.67;;;1.37;;
22480;SDS011;11407;56.964;-2.212;2022-11-10T03:26:39;2.17;;;1.40;;
22480;SDS011;11407;56.964;-2.212;2022-11-10T03:29:04;2.77;;;1.50;;
22480;SDS011;11407;56.964;-2.212;2022-11-10T03:31:30;1.63;;;1.13;;
22480;SDS011;11407;56.964;-2.212;2022-11-10T03:33:55;2.53;;;1.30;;
22480;SDS011;11407;56.964;-2.212;2022-11-10T03:36:20;3.50;;;1.33;;
22480;SDS011;11407;56.964;-2.212;2022-11-10T03:38:46;4.63;;;1.73;;
22480;SDS011;11407;56.964;-2.212;2022-11-10T03:41:11;3.47;;;1.37;;
22480;SDS011;11407;56.964;-2.212;2022-11-10T03:43:36;2.03;;;1.20;;
22480;SDS011;11407;56.964;-2.212;2022-11-10T03:46:02;2.20;;;1.10;;
22480;SDS011;11407;56.964;-2.212;2022-11-10T03:48:27;2.87;;;1.23;;
22480;SDS011;11407;56.964;-2.212;2022-11-10T03:50:53;2.33;;;1.00;;
22480;SDS011;11407;56.964;-2.212;2022-11-10T03:53:18;1.50;;;1.00;;
22480;SDS011;11407;56.964;-2.212;2022-11-10T03:55:43;1.90;;;1.10;;
22480;SDS011;11407;56.964;-2.212;2022-11-10T03:58:09;4.67;;;1.20;;
22480;SDS011;11407;56.964;-2.212;2022-11-10T04:00:34;2.33;;;1.03;;
22480;SDS011;11407;56.964;-2.212;2022-11-10T04:03:00;1.87;;;0.87;;
22480;SDS011;11407;56.964;-2.212;2022-11-10T04:05:25;1.80;;;1.00;;
22480;SDS011;11407;56.964;-2.212;2022-11-10T04:08:13;1.63;;;1.03;;
22480;SDS011;11407;56.964;-2.212;2022-11-10T04:10:59;1.50;;;0.97;;
22480;SDS011;11407;56.964;-2.212;2022-11-10T04:13:25;4.07;;;1.00;;
22480;SDS011;11407;56.964;-2.212;2022-11-10T04:16:09;1.23;;;0.90;;
22480;SDS011;11407;56.964;-2.212;2022-11-10T04:18:34;2.57;;;1.13;;
22480;SDS011;11407;56.964;-2.212;2022-11-10T04:21:00;3.90;;;1.20;;
22480;SDS011;11407;56.964;-2.212;2022-11-10T04:23:28;3.33;;;1.30;;
22480;SDS011;11407;56.964;-2.212;2022-11-10T04:26:02;2.53;;;1.10;;
22480;SDS011;11407;56.964;-2.212;2022-11-10T04:28:54;1.40;;;1.00;;
22480;SDS011;11407;56.964;-2.212;2022-11-10T04:31:22;5.00;;;1.50;;
22480;SDS011;11407;56.964;-2.212;2022-11-10T04:33:48;4.27;;;1.60;;
22480;SDS011;11407;56.964;-2.212;2022-11-10T04:36:18;1.10;;;1.00;;
22480;SDS011;11407;56.964;-2.212;2022-11-10T04:38:46;3.87;;;1.50;;
22480;SDS011;11407;56.964;-2.212;2022-11-10T04:41:12;5.30;;;1.63;;
22480;SDS011;11407;56.964;-2.212;2022-11-10T04:43:38;4.60;;;1.23;;
22480;SDS011;11407;56.964;-2.212;2022-11-10T04:46:04;4.20;;;1.57;;
22480;SDS011;11407;56.964;-2.212;2022-11-10T04:48:30;3.47;;;1.53;;
22480;SDS011;11407;56.964;-2.212;2022-11-10T04:51:01;4.37;;;1.30;;
22480;SDS011;11407;56.964;-2.212;2022-11-10T04:53:30;3.13;;;1.37;;
22480;SDS011;11407;56.964;-2.212;2022-11-10T04:55:55;4.70;;;1.83;;
22480;SDS011;11407;56.964;-2.212;2022-11-10T04:58:21;5.70;;;1.93;;
22480;SDS011;11407;56.964;-2.212;2022-11-10T05:00:46;4.10;;;1.50;;
22480;SDS011;11407;56.964;-2.212;2022-11-10T05:03:12;6.30;;;1.90;;
22480;SDS011;11407;56.964;-2.212;2022-11-10T05:05:38;3.67;;;1.70;;
22480;SDS011;11407;56.964;-2.212;2022-11-10T05:08:04;4.30;;;1.70;;
22480;SDS011;11407;56.964;-2.212;2022-11-10T05:10:30;6.20;;;1.63;;
22480;SDS011;11407;56.964;-2.212;2022-11-10T05:12:55;5.10;;;1.43;;
22480;SDS011;11407;56.964;-2.212;2022-11-10T05:15:21;6.57;;;1.77;;
22480;SDS011;11407;56.964;-2.212;2022-11-10T05:17:51;6.33;;;1.80;;
22480;SDS011;11407;56.964;-2.212;2022-11-10T05:20:18;4.93;;;1.90;;
22480;SDS011;11407;56.964;-2.212;2022-11-10T05:22:48;5.03;;;1.90;;
22480;SDS011;11407;56.964;-2.212;2022-11-10T05:25:33;6.17;;;1.60;;
22480;SDS011;11407;56.964;-2.212;2022-11-10T05:28:00;4.23;;;1.63;;
22480;SDS011;11407;56.964;-2.212;2022-11-10T05:30:26;6.27;;;1.37;;
22480;SDS011;11407;56.964;-2.212;2022-11-10T05:32:52;3.80;;;1.60;;
22480;SDS011;11407;56.964;-2.212;2022-11-10T05:35:17;4.33;;;1.50;;
22480;SDS011;11407;56.964;-2.212;2022-11-10T05:37:43;4.83;;;1.50;;
22480;SDS011;11407;56.964;-2.212;2022-11-10T05:40:08;4.40;;;1.47;;
22480;SDS011;11407;56.964;-2.212;2022-11-10T05:42:41;2.53;;;1.20;;
22480;SDS011;11407;56.964;-2.212;2022-11-10T05:45:07;3.23;;;1.50;;
22480;SDS011;11407;56.964;-2.212;2022-11-10T05:47:35;6.43;;;1.70;;
22480;SDS011;11407;56.964;-2.212;2022-11-10T05:50:01;5.23;;;1.70;;
22480;SDS011;11407;56.964;-2.212;2022-11-10T05:52:27;5.23;;;1.70;;
22480;SDS011;11407;56.964;-2.212;2022-11-10T05:54:52;5.63;;;1.50;;
22480;SDS011;11407;56.964;-2.212;2022-11-10T05:57:19;4.67;;;1.40;;
22480;SDS011;11407;56.964;-2.212;2022-11-10T05:59:45;7.20;;;1.43;;
22480;SDS011;11407;56.964;-2.212;2022-11-10T06:02:10;4.33;;;1.30;;
22480;SDS011;11407;56.964;-2.212;2022-11-10T06:04:35;3.80;;;1.43;;
22480;SDS011;11407;56.964;-2.212;2022-11-10T06:07:01;6.20;;;1.60;;
22480;SDS011;11407;56.964;-2.212;2022-11-10T06:09:26;5.60;;;1.80;;
22480;SDS011;11407;56.964;-2.212;2022-11-10T06:11:52;6.73;;;1.73;;
22480;SDS011;11407;56.964;-2.212;2022-11-10T06:14:17;8.17;;;1.97;;
22480;SDS011;11407;56.964;-2.212;2022-11-10T06:16:42;8.00;;;2.00;;
22480;SDS011;11407;56.964;-2.212;2022-11-10T06:19:08;4.20;;;1.27;;
22480;SDS011;11407;56.964;-2.212;2022-11-10T06:21:33;7.10;;;1.87;;
22480;SDS011;11407;56.964;-2.212;2022-11-10T06:23:59;10.17;;;1.97;;
22480;SDS011;11407;56.964;-2.212;2022-11-10T06:26:24;4.30;;;1.63;;
22480;SDS011;11407;56.964;-2.212;2022-11-10T06:28:49;8.10;;;1.70;;
22480;SDS011;11407;56.964;-2.212;2022-11-10T06:31:15;4.93;;;1.60;;
22480;SDS011;11407;56.964;-2.212;2022-11-10T06:33:40;6.60;;;1.80;;
22480;SDS011;11407;56.964;-2.212;2022-11-10T06:36:07;6.13;;;1.43;;
22480;SDS011;11407;56.964;-2.212;2022-11-10T06:38:33;5.10;;;1.80;;
22480;SDS011;11407;56.964;-2.212;2022-11-10T06:40:58;6.73;;;2.10;;
22480;SDS011;11407;56.964;-2.212;2022-11-10T06:43:23;8.43;;;1.90;;
22480;SDS011;11407;56.964;-2.212;2022-11-10T06:45:49;7.30;;;1.63;;
22480;SDS011;11407;56.964;-2.212;2022-11-10T06:48:14;6.73;;;1.50;;
22480;SDS011;11407;56.964;-2.212;2022-11-10T06:50:40;5.70;;;1.70;;
22480;SDS011;11407;56.964;-2.212;2022-11-10T06:53:05;5.60;;;1.63;;
22480;SDS011;11407;56.964;-2.212;2022-11-10T06:55:31;4.77;;;1.47;;
22480;SDS011;11407;56.964;-2.212;2022-11-10T06:57:56;5.50;;;1.43;;
22480;SDS011;11407;56.964;-2.212;2022-11-10T07:00:22;6.90;;;1.80;;
22480;SDS011;11407;56.964;-2.212;2022-11-10T07:03:05;5.30;;;1.70;;
22480;SDS011;11407;56.964;-2.212;2022-11-10T07:05:33;6.13;;;1.73;;
22480;SDS011;11407;56.964;-2.212;2022-11-10T07:08:04;7.23;;;2.00;;
22480;SDS011;11407;56.964;-2.212;2022-11-10T07:10:31;7.23;;;1.80;;
22480;SDS011;11407;56.964;-2.212;2022-11-10T07:12:58;6.90;;;1.90;;
22480;SDS011;11407;56.964;-2.212;2022-11-10T07:15:25;5.40;;;1.60;;
22480;SDS011;11407;56.964;-2.212;2022-11-10T07:17:51;4.43;;;1.40;;
22480;SDS011;11407;56.964;-2.212;2022-11-10T07:20:16;3.10;;;1.20;;
22480;SDS011;11407;56.964;-2.212;2022-11-10T07:22:42;5.23;;;1.70;;
22480;SDS011;11407;56.964;-2.212;2022-11-10T07:25:07;6.10;;;1.53;;
22480;SDS011;11407;56.964;-2.212;2022-11-10T07:27:33;6.77;;;1.87;;
22480;SDS011;11407;56.964;-2.212;2022-11-10T07:29:58;8.67;;;1.73;;
22480;SDS011;11407;56.964;-2.212;2022-11-10T07:32:24;3.57;;;1.13;;
22480;SDS011;11407;56.964;-2.212;2022-11-10T07:34:49;6.40;;;1.90;;
22480;SDS011;11407;56.964;-2.212;2022-11-10T07:37:15;6.43;;;1.67;;
22480;SDS011;11407;56.964;-2.212;2022-11-10T07:39:40;3.97;;;1.83;;
22480;SDS011;11407;56.964;-2.212;2022-11-10T07:42:06;4.57;;;1.40;;
22480;SDS011;11407;56.964;-2.212;2022-11-10T07:44:31;7.10;;;1.93;;
22480;SDS011;11407;56.964;-2.212;2022-11-10T07:46:56;5.90;;;1.50;;
22480;SDS011;11407;56.964;-2.212;2022-11-10T07:49:22;5.33;;;1.80;;
22480;SDS011;11407;56.964;-2.212;2022-11-10T07:51:47;6.83;;;2.17;;
22480;SDS011;11407;56.964;-2.212;2022-11-10T07:54:13;5.57;;;1.67;;
22480;SDS011;11407;56.964;-2.212;2022-11-10T07:56:38;9.47;;;1.90;;
22480;SDS011;11407;56.964;-2.212;2022-11-10T07:59:04;10.73;;;2.00;;
22480;SDS011;11407;56.964;-2.212;2022-11-10T08:01:29;6.23;;;2.07;;
22480;SDS011;11407;56.964;-2.212;2022-11-10T08:03:55;7.57;;;1.87;;
22480;SDS011;11407;56.964;-2.212;2022-11-10T08:06:20;8.03;;;2.10;;
22480;SDS011;11407;56.964;-2.212;2022-11-10T08:08:46;8.13;;;1.93;;
22480;SDS011;11407;56.964;-2.212;2022-11-10T08:11:11;8.90;;;2.40;;
22480;SDS011;11407;56.964;-2.212;2022-11-10T08:13:37;6.43;;;1.70;;
22480;SDS011;11407;56.964;-2.212;2022-11-10T08:16:03;4.87;;;1.50;;
22480;SDS011;11407;56.964;-2.212;2022-11-10T08:18:29;4.53;;;1.73;;
22480;SDS011;11407;56.964;-2.212;2022-11-10T08:20:54;7.40;;;1.63;;
22480;SDS011;11407;56.964;-2.212;2022-11-10T08:23:20;7.77;;;1.80;;
22480;SDS011;11407;56.964;-2.212;2022-11-10T08:25:45;6.47;;;1.80;;
22480;SDS011;11407;56.964;-2.212;2022-11-10T08:28:15;8.83;;;1.77;;
22480;SDS011;11407;56.964;-2.212;2022-11-10T08:30:43;11.47;;;2.57;;
22480;SDS011;11407;56.964;-2.212;2022-11-10T08:33:10;7.20;;;1.90;;
22480;SDS011;11407;56.964;-2.212;2022-11-10T08:35:37;6.77;;;2.10;;
22480;SDS011;11407;56.964;-2.212;2022-11-10T08:38:09;8.33;;;2.20;;
22480;SDS011;11407;56.964;-2.212;2022-11-10T08:40:39;5.77;;;1.70;;
22480;SDS011;11407;56.964;-2.212;2022-11-10T08:43:05;7.10;;;1.60;;
22480;SDS011;11407;56.964;-2.212;2022-11-10T08:45:32;9.00;;;2.20;;
22480;SDS011;11407;56.964;-2.212;2022-11-10T08:48:00;9.37;;;1.90;;
22480;SDS011;11407;56.964;-2.212;2022-11-10T08:50:27;8.73;;;2.23;;
22480;SDS011;11407;56.964;-2.212;2022-11-10T08:52:53;6.33;;;1.80;;
22480;SDS011;11407;56.964;-2.212;2022-11-10T08:55:18;9.57;;;1.97;;
22480;SDS011;11407;56.964;-2.212;2022-11-10T08:57:45;7.87;;;1.73;;
22480;SDS011;11407;56.964;-2.212;2022-11-10T09:00:11;8.93;;;1.70;;
22480;SDS011;11407;56.964;-2.212;2022-11-10T09:02:38;8.57;;;1.90;;
22480;SDS011;11407;56.964;-2.212;2022-11-10T09:05:03;6.80;;;1.60;;
22480;SDS011;11407;56.964;-2.212;2022-11-10T09:07:29;7.00;;;1.80;;
22480;SDS011;11407;56.964;-2.212;2022-11-10T09:09:55;3.97;;;1.63;;
22480;SDS011;11407;56.964;-2.212;2022-11-10T09:12:20;4.50;;;1.50;;
22480;SDS011;11407;56.964;-2.212;2022-11-10T09:14:46;9.03;;;2.37;;
22480;SDS011;11407;56.964;-2.212;2022-11-10T09:17:11;6.13;;;1.70;;
22480;SDS011;11407;56.964;-2.212;2022-11-10T09:19:37;3.10;;;1.50;;
22480;SDS011;11407;56.964;-2.212;2022-11-10T09:22:02;5.03;;;1.63;;
22480;SDS011;11407;56.964;-2.212;2022-11-10T09:24:28;6.67;;;1.63;;
22480;SDS011;11407;56.964;-2.212;2022-11-10T09:26:53;4.57;;;1.63;;
22480;SDS011;11407;56.964;-2.212;2022-11-10T09:29:19;5.70;;;1.70;;
22480;SDS011;11407;56.964;-2.212;2022-11-10T09:31:45;6.70;;;1.93;;
22480;SDS011;11407;56.964;-2.212;2022-11-10T09:34:11;5.70;;;1.90;;
22480;SDS011;11407;56.964;-2.212;2022-11-10T09:36:36;3.83;;;1.43;;
22480;SDS011;11407;56.964;-2.212;2022-11-10T09:39:04;4.87;;;1.67;;
22480;SDS011;11407;56.964;-2.212;2022-11-10T09:41:30;5.17;;;1.50;;
22480;SDS011;11407;56.964;-2.212;2022-11-10T09:46:46;3.57;;;1.60;;
22480;SDS011;11407;56.964;-2.212;2022-11-10T09:49:34;5.93;;;1.33;;
22480;SDS011;11407;56.964;-2.212;2022-11-10T09:52:03;3.67;;;1.30;;
22480;SDS011;11407;56.964;-2.212;2022-11-10T09:54:48;5.10;;;1.40;;
22480;SDS011;11407;56.964;-2.212;2022-11-10T09:57:23;4.87;;;1.20;;
22480;SDS011;11407;56.964;-2.212;2022-11-10T09:59:50;7.53;;;1.73;;
22480;SDS011;11407;56.964;-2.212;2022-11-10T10:02:37;4.83;;;1.50;;
22480;SDS011;11407;56.964;-2.212;2022-11-10T10:07:59;6.80;;;1.20;;
22480;SDS011;11407;56.964;-2.212;2022-11-10T10:10:43;3.27;;;1.17;;
22480;SDS011;11407;56.964;-2.212;2022-11-10T10:23:59;2.77;;;1.20;;
22480;SDS011;11407;56.964;-2.212;2022-11-10T10:26:28;3.20;;;1.30;;
22480;SDS011;11407;56.964;-2.212;2022-11-10T10:28:55;5.93;;;1.50;;
22480;SDS011;11407;56.964;-2.212;2022-11-10T10:33:56;5.13;;;1.50;;
22480;SDS011;11407;56.964;-2.212;2022-11-10T10:36:26;3.57;;;1.10;;
22480;SDS011;11407;56.964;-2.212;2022-11-10T10:38:55;5.30;;;1.37;;
22480;SDS011;11407;56.964;-2.212;2022-11-10T10:41:26;3.53;;;1.20;;
22480;SDS011;11407;56.964;-2.212;2022-11-10T10:43:54;4.63;;;1.10;;
22480;SDS011;11407;56.964;-2.212;2022-11-10T10:46:21;3.27;;;1.20;;
22480;SDS011;11407;56.964;-2.212;2022-11-10T10:49:05;4.77;;;1.30;;
22480;SDS011;11407;56.964;-2.212;2022-11-10T10:51:41;6.30;;;1.70;;
22480;SDS011;11407;56.964;-2.212;2022-11-10T10:56:59;5.00;;;1.30;;
22480;SDS011;11407;56.964;-2.212;2022-11-10T10:59:29;3.37;;;1.30;;
22480;SDS011;11407;56.964;-2.212;2022-11-10T11:01:56;5.27;;;1.47;;
22480;SDS011;11407;56.964;-2.212;2022-11-10T11:07:02;2.93;;;1.33;;
22480;SDS011;11407;56.964;-2.212;2022-11-10T11:09:44;3.10;;;1.00;;
22480;SDS011;11407;56.964;-2.212;2022-11-10T11:12:13;5.70;;;1.20;;
22480;SDS011;11407;56.964;-2.212;2022-11-10T11:14:51;3.67;;;1.30;;
22480;SDS011;11407;56.964;-2.212;2022-11-10T11:17:37;5.93;;;1.40;;
22480;SDS011;11407;56.964;-2.212;2022-11-10T11:20:02;4.80;;;1.50;;
22480;SDS011;11407;56.964;-2.212;2022-11-10T11:22:47;2.80;;;1.33;;
22480;SDS011;11407;56.964;-2.212;2022-11-10T11:25:21;2.90;;;1.30;;
22480;SDS011;11407;56.964;-2.212;2022-11-10T11:28:46;3.30;;;1.17;;
22480;SDS011;11407;56.964;-2.212;2022-11-10T11:36:08;3.40;;;1.03;;
22480;SDS011;11407;56.964;-2.212;2022-11-10T11:41:35;2.90;;;1.30;;
22480;SDS011;11407;56.964;-2.212;2022-11-10T11:46:51;3.57;;;1.10;;
22480;SDS011;11407;56.964;-2.212;2022-11-10T11:52:24;3.27;;;1.10;;
22480;SDS011;11407;56.964;-2.212;2022-11-10T11:58:02;3.40;;;1.07;;
22480;SDS011;11407;56.964;-2.212;2022-11-10T12:00:41;3.57;;;1.10;;
22480;SDS011;11407;56.964;-2.212;2022-11-10T12:09:08;3.03;;;1.10;;
22480;SDS011;11407;56.964;-2.212;2022-11-10T12:17:21;5.50;;;1.20;;
22480;SDS011;11407;56.964;-2.212;2022-11-10T12:25:52;3.43;;;1.00;;
22480;SDS011;11407;56.964;-2.212;2022-11-10T12:28:34;2.60;;;0.90;;
22480;SDS011;11407;56.964;-2.212;2022-11-10T12:31:04;5.40;;;1.20;;
22480;SDS011;11407;56.964;-2.212;2022-11-10T12:33:42;3.77;;;1.20;;
22480;SDS011;11407;56.964;-2.212;2022-11-10T12:36:14;3.00;;;1.23;;
22480;SDS011;11407;56.964;-2.212;2022-11-10T12:41:27;3.50;;;1.00;;
22480;SDS011;11407;56.964;-2.212;2022-11-10T12:46:49;2.80;;;1.10;;
22480;SDS011;11407;56.964;-2.212;2022-11-10T12:54:41;2.87;;;1.00;;
22480;SDS011;11407;56.964;-2.212;2022-11-10T12:57:25;4.47;;;1.17;;
22480;SDS011;11407;56.964;-2.212;2022-11-10T13:08:03;3.13;;;1.23;;
22480;SDS011;11407;56.964;-2.212;2022-11-10T13:10:30;2.77;;;1.13;;
22480;SDS011;11407;56.964;-2.212;2022-11-10T13:13:13;1.93;;;1.20;;
22480;SDS011;11407;56.964;-2.212;2022-11-10T13:18:07;4.13;;;1.17;;
22480;SDS011;11407;56.964;-2.212;2022-11-10T13:36:38;3.70;;;1.10;;
22480;SDS011;11407;56.964;-2.212;2022-11-10T13:41:50;4.87;;;1.20;;
22480;SDS011;11407;56.964;-2.212;2022-11-10T13:44:27;5.33;;;1.23;;
22480;SDS011;11407;56.964;-2.212;2022-11-10T13:49:27;2.90;;;1.13;;
22480;SDS011;11407;56.964;-2.212;2022-11-10T13:55:01;1.50;;;1.00;;
22480;SDS011;11407;56.964;-2.212;2022-11-10T13:57:34;1.83;;;0.90;;
22480;SDS011;11407;56.964;-2.212;2022-11-10T14:00:05;3.13;;;1.20;;
22480;SDS011;11407;56.964;-2.212;2022-11-10T14:13:18;3.40;;;1.00;;
22480;SDS011;11407;56.964;-2.212;2022-11-10T14:15:49;3.30;;;0.93;;
22480;SDS011;11407;56.964;-2.212;2022-11-10T14:18:17;1.50;;;1.00;;
22480;SDS011;11407;56.964;-2.212;2022-11-10T14:20:46;3.70;;;1.13;;
22480;SDS011;11407;56.964;-2.212;2022-11-10T14:23:20;3.30;;;1.20;;
22480;SDS011;11407;56.964;-2.212;2022-11-10T14:26:02;4.50;;;1.30;;
22480;SDS011;11407;56.964;-2.212;2022-11-10T14:28:32;3.43;;;1.30;;
22480;SDS011;11407;56.964;-2.212;2022-11-10T14:30:58;2.93;;;1.10;;
22480;SDS011;11407;56.964;-2.212;2022-11-10T14:33:24;2.67;;;1.37;;
22480;SDS011;11407;56.964;-2.212;2022-11-10T14:35:54;5.37;;;1.30;;
22480;SDS011;11407;56.964;-2.212;2022-11-10T14:38:24;3.50;;;1.23;;
22480;SDS011;11407;56.964;-2.212;2022-11-10T14:40:57;2.17;;;1.10;;
22480;SDS011;11407;56.964;-2.212;2022-11-10T14:43:32;4.40;;;1.00;;
22480;SDS011;11407;56.964;-2.212;2022-11-10T14:45:57;2.63;;;1.00;;
22480;SDS011;11407;56.964;-2.212;2022-11-10T14:48:28;1.53;;;0.87;;
22480;SDS011;11407;56.964;-2.212;2022-11-10T14:51:01;2.77;;;1.20;;
22480;SDS011;11407;56.964;-2.212;2022-11-10T14:53:32;2.47;;;1.23;;
22480;SDS011;11407;56.964;-2.212;2022-11-10T14:56:00;1.87;;;0.93;;
22480;SDS011;11407;56.964;-2.212;2022-11-10T14:58:34;3.33;;;1.00;;
22480;SDS011;11407;56.964;-2.212;2022-11-10T15:01:03;3.00;;;1.10;;
22480;SDS011;11407;56.964;-2.212;2022-11-10T15:03:39;1.77;;;1.07;;
22480;SDS011;11407;56.964;-2.212;2022-11-10T15:06:07;1.63;;;0.97;;
22480;SDS011;11407;56.964;-2.212;2022-11-10T15:08:36;5.93;;;1.40;;
22480;SDS011;11407;56.964;-2.212;2022-11-10T15:11:02;4.07;;;1.10;;
22480;SDS011;11407;56.964;-2.212;2022-11-10T15:18:46;2.27;;;0.90;;
22480;SDS011;11407;56.964;-2.212;2022-11-10T15:21:15;3.20;;;1.20;;
22480;SDS011;11407;56.964;-2.212;2022-11-10T15:23:43;6.47;;;1.43;;
22480;SDS011;11407;56.964;-2.212;2022-11-10T15:26:21;2.93;;;1.10;;
22480;SDS011;11407;56.964;-2.212;2022-11-10T15:28:49;1.93;;;1.10;;
22480;SDS011;11407;56.964;-2.212;2022-11-10T15:33:51;2.63;;;1.00;;
22480;SDS011;11407;56.964;-2.212;2022-11-10T15:38:59;4.63;;;1.43;;
22480;SDS011;11407;56.964;-2.212;2022-11-10T15:41:34;2.90;;;1.43;;
22480;SDS011;11407;56.964;-2.212;2022-11-10T15:44:20;3.20;;;1.20;;
22480;SDS011;11407;56.964;-2.212;2022-11-10T15:46:51;5.97;;;1.20;;
22480;SDS011;11407;56.964;-2.212;2022-11-10T15:49:24;3.43;;;1.10;;
22480;SDS011;11407;56.964;-2.212;2022-11-10T15:51:55;5.77;;;1.27;;
22480;SDS011;11407;56.964;-2.212;2022-11-10T15:54:23;2.57;;;1.40;;
22480;SDS011;11407;56.964;-2.212;2022-11-10T15:56:51;2.63;;;1.20;;
22480;SDS011;11407;56.964;-2.212;2022-11-10T15:59:16;3.57;;;1.20;;
22480;SDS011;11407;56.964;-2.212;2022-11-10T16:01:42;5.57;;;1.40;;
22480;SDS011;11407;56.964;-2.212;2022-11-10T16:04:07;5.20;;;1.50;;
22480;SDS011;11407;56.964;-2.212;2022-11-10T16:06:34;3.77;;;1.20;;
22480;SDS011;11407;56.964;-2.212;2022-11-10T16:08:59;3.83;;;1.20;;
22480;SDS011;11407;56.964;-2.212;2022-11-10T16:11:24;5.87;;;1.67;;
22480;SDS011;11407;56.964;-2.212;2022-11-10T16:13:51;1.97;;;1.20;;
22480;SDS011;11407;56.964;-2.212;2022-11-10T16:16:18;4.97;;;1.60;;
22480;SDS011;11407;56.964;-2.212;2022-11-10T16:18:44;5.53;;;1.57;;
22480;SDS011;11407;56.964;-2.212;2022-11-10T16:21:14;2.70;;;1.10;;
22480;SDS011;11407;56.964;-2.212;2022-11-10T16:23:42;2.77;;;1.13;;
22480;SDS011;11407;56.964;-2.212;2022-11-10T16:26:15;2.90;;;1.33;;
22480;SDS011;11407;56.964;-2.212;2022-11-10T16:28:42;6.97;;;1.70;;
22480;SDS011;11407;56.964;-2.212;2022-11-10T16:31:12;4.53;;;1.40;;
22480;SDS011;11407;56.964;-2.212;2022-11-10T16:33:41;1.93;;;1.17;;
22480;SDS011;11407;56.964;-2.212;2022-11-10T16:36:49;4.80;;;1.47;;
22480;SDS011;11407;56.964;-2.212;2022-11-10T16:39:00;4.17;;;1.23;;
22480;SDS011;11407;56.964;-2.212;2022-11-10T16:41:27;2.83;;;1.20;;
22480;SDS011;11407;56.964;-2.212;2022-11-10T16:43:52;4.97;;;1.70;;
22480;SDS011;11407;56.964;-2.212;2022-11-10T16:48:48;5.47;;;1.40;;
22480;SDS011;11407;56.964;-2.212;2022-11-10T16:51:16;4.97;;;1.37;;
22480;SDS011;11407;56.964;-2.212;2022-11-10T16:53:42;4.93;;;1.40;;